Log in
NYSE:PNC

PNC Financial Services Group Institutional Ownership

$108.72
-0.47 (-0.43 %)
(As of 10/28/2020 12:00 AM ET)
Add
Compare
Today's Range
$107.64
Now: $108.72
$110.07
50-Day Range
$102.48
MA: $111.09
$116.54
52-Week Range
$79.41
Now: $108.72
$161.79
Volume3.20 million shs
Average Volume2.70 million shs
Market Capitalization$46.15 billion
P/E Ratio6.51
Dividend Yield4.21%
Beta1.24

Institutional Ownership

Institutional Ownership Changes (13F Filings) for PNC Financial Services Group (NYSE:PNC)

Institutional Ownership Percentage: 79.48%

Institutional Buying and Selling by Quarter


PNC Financial Services Group (NYSE PNC) Institutional Buying and Selling

Reporting DateHedge FundShares HeldMarket Value% of PortfolioQuarterly Change in SharesOwnership in Company
10/28/2020Thoroughbred Financial Services LLC3,072$0.34M0.1%-8.8%0.001%
10/28/2020Lloyd Advisory Services LLC.873$96K0.1%-11.4%0.000%
10/28/2020Empirical Finance LLC3,653$0.40M0.1%+22.5%0.001%
10/28/2020Schmidt P J Investment Management Inc.37,059$4.05M1.0%-8.9%0.009%
10/28/2020Trust Asset Management LLC2,191$0.24M0.0%N/A0.001%
10/28/2020New Mexico Educational Retirement Board27,199$2.99M0.1%-7.8%0.006%
10/28/2020Atwood & Palmer Inc.153,422$16.86M2.1%-0.1%0.036%
10/28/2020Valeo Financial Advisors LLC2,224$0.24M0.0%-19.3%0.001%
10/28/2020Guyasuta Investment Advisors Inc.233,249$25.64M2.4%+1.1%0.055%
10/28/2020Moody Lynn & Lieberson LLC2,590$0.29M0.0%-6.2%0.001%
10/28/2020KBC Group NV117,262$12.89M0.1%-11.1%0.028%
10/28/2020Dubuque Bank & Trust2,194$0.24M0.0%-35.4%0.001%
10/28/2020Weaver Consulting Group405$45K0.0%+161.3%0.000%
10/27/2020Goelzer Investment Management Inc.2,099$0.23M0.0%-6.3%0.000%
10/27/2020Western Wealth Management LLC2,110$0.23M0.0%-10.1%0.000%
10/27/2020Telos Capital Management Inc.28,600$3.14M0.5%+8.5%0.007%
10/27/2020Pinnacle Financial Partners Inc.4,477$0.49M0.0%+3.3%0.001%
10/27/2020Parallel Advisors LLC2,687$0.30M0.0%-3.4%0.001%
10/27/2020David Loasby1,964$0.22M0.0%-7.2%0.000%
10/27/2020New Mexico Educational Retirement Board34,849$4.88M0.2%+18.1%0.008%
10/27/2020BBVA USA Bancshares Inc.2,999$0.33M0.0%-41.6%0.001%
10/27/2020State of New Jersey Common Pension Fund D266,978$29.34M0.1%-7.8%0.063%
10/27/2020Argyle Capital Management Inc.35,700$3.92M1.6%+1.9%0.008%
10/27/2020Leavell Investment Management Inc.2,685$0.30M0.0%-11.1%0.001%
10/27/2020Bay Harbor Wealth Management LLC768$84K0.0%-34.1%0.000%
10/27/2020Ethic Inc.5,231$0.58M0.2%+31.1%0.001%
10/27/2020Psagot Investment House Ltd.14,151$1.56M0.0%-10.4%0.003%
10/27/2020SVA Wealth Management LLC22,964$2.52M0.3%+1.2%0.005%
10/26/2020M&G Investment Management Ltd.230,861$25.40M0.3%+13.7%0.054%
10/26/2020First Bank & Trust8,234$0.91M0.6%-3.5%0.002%
10/26/2020Lowe Brockenbrough & Co. Inc.68,466$7.53M0.9%-0.5%0.016%
10/26/2020Colonial Trust Advisors9,182$1.01M0.2%-9.8%0.002%
10/26/2020Choate Investment Advisors7,742$0.85M0.1%-3.2%0.002%
10/26/2020JustInvest LLC3,288$0.36M0.1%+39.1%0.001%
10/26/2020Hyman Charles D2,339$0.26M0.0%-7.9%0.001%
10/26/2020Bradley Foster & Sargent Inc. CT2,608$0.29M0.0%N/A0.001%
10/26/2020Norris Perne & French LLP MI3,558$0.39M0.0%+16.4%0.001%
10/26/2020Ellevest Inc.537$59K0.0%-28.4%0.000%
10/26/2020Strategic Family Wealth Counselors L.L.C.10,133$1.11M0.6%-1.3%0.002%
10/26/2020Steel Peak Wealth Management LLC10,506$1.16M0.1%+68.1%0.002%
10/26/2020Clear Harbor Asset Management LLC3,175$0.35M0.1%-24.0%0.001%
10/26/2020Cypress Asset Management Inc. TX23,742$2.61M0.8%-5.4%0.006%
10/26/2020MAI Capital Management2,595$0.29M0.0%-7.0%0.001%
10/23/2020Pinnacle Associates Ltd.80,592$8.86M0.2%-0.1%0.019%
10/23/2020Sequoia Financial Advisors LLC5,411$0.60M0.0%+5.0%0.001%
10/23/2020LSV Asset Management1,531,885$168.37M0.3%-14.4%0.361%
10/23/2020New Potomac Partners LLC7,070$0.78M0.6%-31.7%0.002%
10/23/2020Cadence Bank NA5,982$0.66M0.3%-7.3%0.001%
10/23/2020Harbor Investment Advisory LLC4,731$0.52M0.1%+2.6%0.001%
10/23/2020Tufton Capital Management8,972$0.99M0.2%-2.2%0.002%
10/23/2020Black Diamond Financial LLC2,087$0.23M0.1%-23.0%0.000%
10/22/2020Icon Wealth Partners LLC14,646$1.61M0.3%N/A0.003%
10/22/2020AMG National Trust Bank4,315$0.47M0.0%-24.7%0.001%
10/22/2020Ballentine Partners LLC5,810$0.64M0.0%+19.1%0.001%
10/22/2020SevenBridge Financial Group LLC16,024$1.76M0.8%-4.1%0.004%
10/22/2020Webster Bank N. A.15,843$1.74M0.2%-2.1%0.004%
10/22/2020CENTRAL TRUST Co10,637$1.17M0.1%-3.4%0.003%
10/22/2020Deroy & Devereaux Private Investment Counsel Inc.137,068$15.07M1.6%-0.4%0.032%
10/22/2020Benin Management CORP36,670$4.03M1.8%-2.1%0.009%
10/22/2020NEXT Financial Group Inc3,768$0.41M0.0%+21.5%0.001%
10/22/2020Rothschild Investment Corp IL5,217$0.57M0.1%+2.2%0.001%
10/22/2020D. B. Root & Company LLC18,241$2M0.8%+0.8%0.004%
10/21/2020Ziegler Capital Management LLC46,294$5.09M0.2%-33.4%0.011%
10/21/2020Great Valley Advisor Group Inc.7,789$0.86M0.1%-4.3%0.002%
10/21/2020Standard Life Aberdeen plc177,234$19.48M0.1%-41.0%0.042%
10/21/2020WealthTrust Axiom LLC9,364$1.03M0.4%+44.4%0.002%
10/21/2020Conning Inc.382,545$42.05M1.5%+5.9%0.090%
10/21/2020Alpha Windward LLC2,659$0.29M0.2%+13.5%0.001%
10/21/2020CWH Capital Management Inc.2,536$0.28M0.1%N/A0.001%
10/21/2020Bank OZK12,855$1.41M0.8%-14.2%0.003%
10/21/2020Strategic Wealth Management Group LLC2,213$0.24M0.1%+16.2%0.001%
10/21/2020Crossvault Capital Management LLC36,833$4.05M1.8%-8.0%0.009%
10/21/2020Patriot Financial Group Insurance Agency LLC279$31K0.0%-28.5%0.000%
10/21/2020Jag Capital Management LLC15,115$1.66M0.2%+4.0%0.004%
10/21/2020Winslow Evans & Crocker Inc.9,541$1.05M0.3%-10.6%0.002%
10/20/2020Wedbush Securities Inc.2,021$0.22M0.0%N/A0.000%
10/20/2020Northwest Bancshares Inc.8,228$0.90M0.2%+3.0%0.002%
10/20/2020Bristlecone Advisors LLC10,550$1.16M0.2%-2.8%0.002%
10/20/2020Fulton Breakefield Broenniman LLC108,893$11.97M1.3%-0.5%0.026%
10/20/2020Nelson Van Denburg & Campbell Wealth Management Group LLC3,311$0.36M0.1%-21.4%0.001%
10/20/2020BLB&B Advisors LLC73,639$8.09M0.8%+3.3%0.017%
10/20/2020Nissay Asset Management Corp Japan ADV41,141$4.52M0.1%-15.1%0.010%
10/20/2020Abbrea Capital LLC6,717$0.74M0.2%-12.4%0.002%
10/20/2020Retirement Systems of Alabama171,095$18.81M0.1%-5.7%0.040%
10/20/2020Private Wealth Advisors Inc.26,866$2.95M1.9%-7.0%0.006%
10/20/2020Nisa Investment Advisors LLC192,970$21.21M0.2%+0.8%0.045%
10/20/2020Harel Insurance Investments & Financial Services Ltd.1,264$0.14M0.0%+710.3%0.000%
10/20/2020Asset Dedication LLC2,902$0.32M0.1%+41.6%0.001%
10/19/2020Candriam Luxembourg S.C.A.45,707$5.02M0.0%+26.8%0.011%
10/19/2020Morris Capital Advisors LLC4,257$0.47M0.4%-2.8%0.001%
10/19/2020Douglas Lane & Associates LLC1,820$0.20M0.0%-10.7%0.000%
10/19/2020Hanson & Doremus Investment Management1,563$0.17M0.1%-10.7%0.000%
10/19/2020Gateway Investment Advisers LLC46,830$5.15M0.1%+815.7%0.011%
10/19/2020Pacer Advisors Inc.29,259$3.22M0.1%-17.7%0.007%
10/19/2020First Midwest Bank Trust Division10,594$1.17M0.2%-9.3%0.002%
10/19/2020Clear Street Markets LLC3,900$0.43M0.0%+34.5%0.001%
10/19/2020CWM LLC5,230$0.58M0.0%-87.8%0.001%
10/19/2020Dowling & Yahnke LLC24,011$2.64M0.2%-0.5%0.006%
10/19/2020Ellis Investment Partners LLC1,053$0.12M0.0%-21.5%0.000%
10/19/2020Northstar Asset Management LLC1,832$0.20M0.1%N/A0.000%
(Data available from 1/1/2016 forward)
This page was last updated on 10/29/2020 by MarketBeat.com Staff

Enter your email address below to receive a concise daily summary of analysts' upgrades, downgrades and new coverage with MarketBeat.com's FREE daily email newsletter.